sensor_id;sensor_type;location;lat;lon;timestamp;P1;durP1;ratioP1;P2;durP2;ratioP2
70450;SDS011;58869;51.982;4.450;2024-01-30T00:00:18;19.92;;;19.56;;
70450;SDS011;58869;51.982;4.450;2024-01-30T00:02:43;19.42;;;19.28;;
70450;SDS011;58869;51.982;4.450;2024-01-30T00:05:10;19.82;;;19.58;;
70450;SDS011;58869;51.982;4.450;2024-01-30T00:07:36;19.29;;;19.16;;
70450;SDS011;58869;51.982;4.450;2024-01-30T00:10:01;19.85;;;19.78;;
70450;SDS011;58869;51.982;4.450;2024-01-30T00:12:27;19.71;;;19.54;;
70450;SDS011;58869;51.982;4.450;2024-01-30T00:14:52;19.26;;;19.22;;
70450;SDS011;58869;51.982;4.450;2024-01-30T00:17:18;19.59;;;19.50;;
70450;SDS011;58869;51.982;4.450;2024-01-30T00:19:45;18.86;;;18.86;;
70450;SDS011;58869;51.982;4.450;2024-01-30T00:22:10;19.67;;;19.66;;
70450;SDS011;58869;51.982;4.450;2024-01-30T00:24:38;19.21;;;19.09;;
70450;SDS011;58869;51.982;4.450;2024-01-30T00:27:04;19.13;;;19.10;;
70450;SDS011;58869;51.982;4.450;2024-01-30T00:29:29;19.60;;;19.40;;
70450;SDS011;58869;51.982;4.450;2024-01-30T00:31:58;18.40;;;18.19;;
70450;SDS011;58869;51.982;4.450;2024-01-30T00:34:24;18.47;;;18.32;;
70450;SDS011;58869;51.982;4.450;2024-01-30T00:36:50;18.69;;;18.67;;
70450;SDS011;58869;51.982;4.450;2024-01-30T00:39:16;18.66;;;18.53;;
70450;SDS011;58869;51.982;4.450;2024-01-30T00:41:41;18.65;;;18.46;;
70450;SDS011;58869;51.982;4.450;2024-01-30T00:44:07;18.14;;;18.14;;
70450;SDS011;58869;51.982;4.450;2024-01-30T00:46:32;17.96;;;17.96;;
70450;SDS011;58869;51.982;4.450;2024-01-30T00:48:57;17.74;;;17.74;;
70450;SDS011;58869;51.982;4.450;2024-01-30T00:51:23;17.88;;;17.88;;
70450;SDS011;58869;51.982;4.450;2024-01-30T00:53:51;17.10;;;17.09;;
70450;SDS011;58869;51.982;4.450;2024-01-30T00:56:17;17.00;;;17.00;;
70450;SDS011;58869;51.982;4.450;2024-01-30T00:58:44;16.44;;;16.43;;
70450;SDS011;58869;51.982;4.450;2024-01-30T01:01:09;16.11;;;16.10;;
70450;SDS011;58869;51.982;4.450;2024-01-30T01:03:35;16.33;;;16.31;;
70450;SDS011;58869;51.982;4.450;2024-01-30T01:06:01;16.43;;;16.33;;
70450;SDS011;58869;51.982;4.450;2024-01-30T01:08:29;16.08;;;16.02;;
70450;SDS011;58869;51.982;4.450;2024-01-30T01:10:55;16.40;;;16.36;;
70450;SDS011;58869;51.982;4.450;2024-01-30T01:13:20;15.87;;;15.87;;
70450;SDS011;58869;51.982;4.450;2024-01-30T01:15:46;16.17;;;16.17;;
70450;SDS011;58869;51.982;4.450;2024-01-30T01:18:11;15.96;;;15.96;;
70450;SDS011;58869;51.982;4.450;2024-01-30T01:20:39;15.91;;;15.91;;
70450;SDS011;58869;51.982;4.450;2024-01-30T01:23:05;16.35;;;16.35;;
70450;SDS011;58869;51.982;4.450;2024-01-30T01:25:30;16.33;;;16.33;;
70450;SDS011;58869;51.982;4.450;2024-01-30T01:28:41;16.48;;;16.48;;
70450;SDS011;58869;51.982;4.450;2024-01-30T01:30:57;16.05;;;16.05;;
70450;SDS011;58869;51.982;4.450;2024-01-30T01:33:35;15.91;;;15.91;;
70450;SDS011;58869;51.982;4.450;2024-01-30T01:36:03;16.76;;;16.70;;
70450;SDS011;58869;51.982;4.450;2024-01-30T01:38:37;16.50;;;16.43;;
70450;SDS011;58869;51.982;4.450;2024-01-30T01:41:21;16.10;;;16.10;;
70450;SDS011;58869;51.982;4.450;2024-01-30T01:49:44;16.09;;;16.07;;
70450;SDS011;58869;51.982;4.450;2024-01-30T01:52:22;16.47;;;16.47;;
70450;SDS011;58869;51.982;4.450;2024-01-30T01:54:56;16.22;;;16.18;;
70450;SDS011;58869;51.982;4.450;2024-01-30T01:57:22;16.13;;;16.05;;
70450;SDS011;58869;51.982;4.450;2024-01-30T01:59:47;15.93;;;15.92;;
70450;SDS011;58869;51.982;4.450;2024-01-30T02:02:13;16.11;;;16.11;;
70450;SDS011;58869;51.982;4.450;2024-01-30T02:04:43;15.50;;;15.50;;
70450;SDS011;58869;51.982;4.450;2024-01-30T02:07:15;15.59;;;15.58;;
70450;SDS011;58869;51.982;4.450;2024-01-30T02:09:40;15.00;;;15.00;;
70450;SDS011;58869;51.982;4.450;2024-01-30T02:12:12;15.19;;;15.19;;
70450;SDS011;58869;51.982;4.450;2024-01-30T02:14:47;15.12;;;15.08;;
70450;SDS011;58869;51.982;4.450;2024-01-30T02:17:14;14.45;;;14.45;;
70450;SDS011;58869;51.982;4.450;2024-01-30T02:19:40;14.57;;;14.57;;
70450;SDS011;58869;51.982;4.450;2024-01-30T02:22:24;14.54;;;14.54;;
70450;SDS011;58869;51.982;4.450;2024-01-30T02:24:49;14.65;;;14.65;;
70450;SDS011;58869;51.982;4.450;2024-01-30T02:27:15;14.77;;;14.73;;
70450;SDS011;58869;51.982;4.450;2024-01-30T02:29:40;15.18;;;15.11;;
70450;SDS011;58869;51.982;4.450;2024-01-30T02:32:06;14.55;;;14.55;;
70450;SDS011;58869;51.982;4.450;2024-01-30T02:34:35;14.24;;;14.19;;
70450;SDS011;58869;51.982;4.450;2024-01-30T02:37:01;14.78;;;14.78;;
70450;SDS011;58869;51.982;4.450;2024-01-30T02:39:26;14.51;;;14.49;;
70450;SDS011;58869;51.982;4.450;2024-01-30T02:42:04;14.98;;;14.92;;
70450;SDS011;58869;51.982;4.450;2024-01-30T02:44:36;14.82;;;14.82;;
70450;SDS011;58869;51.982;4.450;2024-01-30T02:49:55;15.11;;;15.11;;
70450;SDS011;58869;51.982;4.450;2024-01-30T02:52:21;15.26;;;15.26;;
70450;SDS011;58869;51.982;4.450;2024-01-30T02:54:46;14.76;;;14.76;;
70450;SDS011;58869;51.982;4.450;2024-01-30T02:57:12;14.11;;;14.11;;
70450;SDS011;58869;51.982;4.450;2024-01-30T02:59:43;14.78;;;14.78;;
70450;SDS011;58869;51.982;4.450;2024-01-30T03:02:10;14.74;;;14.60;;
70450;SDS011;58869;51.982;4.450;2024-01-30T03:04:44;14.33;;;14.33;;
70450;SDS011;58869;51.982;4.450;2024-01-30T03:07:18;14.86;;;14.84;;
70450;SDS011;58869;51.982;4.450;2024-01-30T03:09:44;15.02;;;14.99;;
70450;SDS011;58869;51.982;4.450;2024-01-30T03:12:09;15.20;;;15.15;;
70450;SDS011;58869;51.982;4.450;2024-01-30T03:14:35;14.88;;;14.87;;
70450;SDS011;58869;51.982;4.450;2024-01-30T03:17:04;15.57;;;15.57;;
70450;SDS011;58869;51.982;4.450;2024-01-30T03:19:30;14.55;;;14.53;;
70450;SDS011;58869;51.982;4.450;2024-01-30T03:21:56;14.84;;;14.83;;
70450;SDS011;58869;51.982;4.450;2024-01-30T03:24:21;14.81;;;14.81;;
70450;SDS011;58869;51.982;4.450;2024-01-30T03:30:11;14.75;;;14.71;;
70450;SDS011;58869;51.982;4.450;2024-01-30T03:32:47;15.63;;;15.63;;
70450;SDS011;58869;51.982;4.450;2024-01-30T03:35:14;16.11;;;16.09;;
70450;SDS011;58869;51.982;4.450;2024-01-30T03:37:43;15.44;;;15.43;;
70450;SDS011;58869;51.982;4.450;2024-01-30T03:40:09;15.37;;;15.37;;
70450;SDS011;58869;51.982;4.450;2024-01-30T03:42:34;14.83;;;14.80;;
70450;SDS011;58869;51.982;4.450;2024-01-30T03:45:12;15.35;;;15.28;;
70450;SDS011;58869;51.982;4.450;2024-01-30T03:47:38;15.12;;;14.81;;
70450;SDS011;58869;51.982;4.450;2024-01-30T03:50:09;14.70;;;14.62;;
70450;SDS011;58869;51.982;4.450;2024-01-30T03:52:35;14.51;;;14.51;;
70450;SDS011;58869;51.982;4.450;2024-01-30T03:55:12;15.13;;;15.13;;
70450;SDS011;58869;51.982;4.450;2024-01-30T03:57:38;14.65;;;14.65;;
70450;SDS011;58869;51.982;4.450;2024-01-30T04:00:04;14.81;;;14.81;;
70450;SDS011;58869;51.982;4.450;2024-01-30T04:02:30;14.57;;;14.57;;
70450;SDS011;58869;51.982;4.450;2024-01-30T04:04:55;14.95;;;14.87;;
70450;SDS011;58869;51.982;4.450;2024-01-30T04:07:21;15.00;;;14.90;;
70450;SDS011;58869;51.982;4.450;2024-01-30T04:09:46;14.82;;;14.81;;
70450;SDS011;58869;51.982;4.450;2024-01-30T04:12:12;14.94;;;14.94;;
70450;SDS011;58869;51.982;4.450;2024-01-30T04:14:58;14.10;;;14.09;;
70450;SDS011;58869;51.982;4.450;2024-01-30T04:17:23;15.42;;;15.37;;
70450;SDS011;58869;51.982;4.450;2024-01-30T04:19:49;14.87;;;14.86;;
70450;SDS011;58869;51.982;4.450;2024-01-30T04:22:14;15.28;;;15.26;;
70450;SDS011;58869;51.982;4.450;2024-01-30T04:24:40;14.73;;;14.72;;
70450;SDS011;58869;51.982;4.450;2024-01-30T04:27:17;15.01;;;15.01;;
70450;SDS011;58869;51.982;4.450;2024-01-30T04:29:43;14.62;;;14.62;;
70450;SDS011;58869;51.982;4.450;2024-01-30T04:32:09;15.22;;;15.11;;
70450;SDS011;58869;51.982;4.450;2024-01-30T04:34:36;14.94;;;14.94;;
70450;SDS011;58869;51.982;4.450;2024-01-30T04:37:30;15.45;;;15.32;;
70450;SDS011;58869;51.982;4.450;2024-01-30T04:39:59;14.58;;;14.57;;
70450;SDS011;58869;51.982;4.450;2024-01-30T04:42:24;14.39;;;14.32;;
70450;SDS011;58869;51.982;4.450;2024-01-30T04:48:04;14.86;;;14.84;;
70450;SDS011;58869;51.982;4.450;2024-01-30T04:50:59;14.88;;;14.86;;
70450;SDS011;58869;51.982;4.450;2024-01-30T04:53:37;15.07;;;15.06;;
70450;SDS011;58869;51.982;4.450;2024-01-30T05:02:14;15.10;;;15.10;;
70450;SDS011;58869;51.982;4.450;2024-01-30T05:04:40;15.01;;;14.99;;
70450;SDS011;58869;51.982;4.450;2024-01-30T05:14:21;14.68;;;14.67;;
70450;SDS011;58869;51.982;4.450;2024-01-30T05:17:26;15.58;;;15.54;;
70450;SDS011;58869;51.982;4.450;2024-01-30T05:19:51;15.12;;;15.03;;
70450;SDS011;58869;51.982;4.450;2024-01-30T05:22:17;15.16;;;15.16;;
70450;SDS011;58869;51.982;4.450;2024-01-30T05:24:44;15.39;;;15.39;;
70450;SDS011;58869;51.982;4.450;2024-01-30T05:27:12;15.11;;;15.11;;
70450;SDS011;58869;51.982;4.450;2024-01-30T05:29:40;15.25;;;15.25;;
70450;SDS011;58869;51.982;4.450;2024-01-30T05:32:06;15.79;;;15.53;;
70450;SDS011;58869;51.982;4.450;2024-01-30T05:34:31;14.95;;;14.91;;
70450;SDS011;58869;51.982;4.450;2024-01-30T05:36:57;15.12;;;15.00;;
70450;SDS011;58869;51.982;4.450;2024-01-30T05:39:23;15.15;;;15.14;;
70450;SDS011;58869;51.982;4.450;2024-01-30T05:41:48;15.24;;;15.16;;
70450;SDS011;58869;51.982;4.450;2024-01-30T05:44:14;15.01;;;15.01;;
70450;SDS011;58869;51.982;4.450;2024-01-30T05:46:39;14.86;;;14.85;;
70450;SDS011;58869;51.982;4.450;2024-01-30T05:49:05;15.01;;;15.00;;
70450;SDS011;58869;51.982;4.450;2024-01-30T05:51:31;14.48;;;14.48;;
70450;SDS011;58869;51.982;4.450;2024-01-30T05:53:58;15.17;;;15.17;;
70450;SDS011;58869;51.982;4.450;2024-01-30T05:56:28;15.32;;;15.32;;
70450;SDS011;58869;51.982;4.450;2024-01-30T05:58:54;15.12;;;15.12;;
70450;SDS011;58869;51.982;4.450;2024-01-30T06:01:20;15.13;;;15.12;;
70450;SDS011;58869;51.982;4.450;2024-01-30T06:03:45;15.30;;;15.25;;
70450;SDS011;58869;51.982;4.450;2024-01-30T06:06:11;14.91;;;14.89;;
70450;SDS011;58869;51.982;4.450;2024-01-30T06:08:36;14.92;;;14.92;;
70450;SDS011;58869;51.982;4.450;2024-01-30T06:11:02;14.86;;;14.86;;
70450;SDS011;58869;51.982;4.450;2024-01-30T06:13:27;14.96;;;14.96;;
70450;SDS011;58869;51.982;4.450;2024-01-30T06:15:53;14.93;;;14.93;;
70450;SDS011;58869;51.982;4.450;2024-01-30T06:18:18;15.40;;;15.39;;
70450;SDS011;58869;51.982;4.450;2024-01-30T06:20:44;15.06;;;15.06;;
70450;SDS011;58869;51.982;4.450;2024-01-30T06:23:09;15.67;;;15.51;;
70450;SDS011;58869;51.982;4.450;2024-01-30T06:25:35;15.32;;;15.32;;
70450;SDS011;58869;51.982;4.450;2024-01-30T06:28:00;15.23;;;15.17;;
70450;SDS011;58869;51.982;4.450;2024-01-30T06:30:26;15.81;;;15.81;;
70450;SDS011;58869;51.982;4.450;2024-01-30T06:32:52;15.52;;;15.52;;
70450;SDS011;58869;51.982;4.450;2024-01-30T06:35:17;15.18;;;15.18;;
70450;SDS011;58869;51.982;4.450;2024-01-30T06:37:43;15.96;;;15.96;;
70450;SDS011;58869;51.982;4.450;2024-01-30T06:40:11;15.76;;;15.75;;
70450;SDS011;58869;51.982;4.450;2024-01-30T06:42:37;15.52;;;15.52;;
70450;SDS011;58869;51.982;4.450;2024-01-30T06:45:02;16.10;;;16.07;;
70450;SDS011;58869;51.982;4.450;2024-01-30T06:47:28;16.29;;;16.28;;
70450;SDS011;58869;51.982;4.450;2024-01-30T06:49:56;15.24;;;15.18;;
70450;SDS011;58869;51.982;4.450;2024-01-30T06:52:21;15.73;;;15.61;;
70450;SDS011;58869;51.982;4.450;2024-01-30T06:54:47;15.23;;;15.23;;
70450;SDS011;58869;51.982;4.450;2024-01-30T06:57:15;15.50;;;15.50;;
70450;SDS011;58869;51.982;4.450;2024-01-30T06:59:41;16.13;;;16.13;;
70450;SDS011;58869;51.982;4.450;2024-01-30T07:02:08;15.80;;;15.76;;
70450;SDS011;58869;51.982;4.450;2024-01-30T07:04:34;15.54;;;15.53;;
70450;SDS011;58869;51.982;4.450;2024-01-30T07:07:02;14.70;;;14.70;;
70450;SDS011;58869;51.982;4.450;2024-01-30T07:09:28;14.46;;;14.46;;
70450;SDS011;58869;51.982;4.450;2024-01-30T07:11:54;15.09;;;15.07;;
70450;SDS011;58869;51.982;4.450;2024-01-30T07:14:20;14.15;;;14.15;;
70450;SDS011;58869;51.982;4.450;2024-01-30T07:16:47;14.76;;;14.71;;
70450;SDS011;58869;51.982;4.450;2024-01-30T07:19:12;14.91;;;14.89;;
70450;SDS011;58869;51.982;4.450;2024-01-30T07:21:38;14.13;;;14.12;;
70450;SDS011;58869;51.982;4.450;2024-01-30T07:24:05;14.37;;;14.35;;
70450;SDS011;58869;51.982;4.450;2024-01-30T07:26:31;15.02;;;14.98;;
70450;SDS011;58869;51.982;4.450;2024-01-30T07:28:59;14.67;;;14.64;;
70450;SDS011;58869;51.982;4.450;2024-01-30T07:31:25;14.42;;;14.42;;
70450;SDS011;58869;51.982;4.450;2024-01-30T07:33:50;14.97;;;14.96;;
70450;SDS011;58869;51.982;4.450;2024-01-30T07:36:16;14.77;;;14.72;;
70450;SDS011;58869;51.982;4.450;2024-01-30T07:38:41;14.78;;;14.78;;
70450;SDS011;58869;51.982;4.450;2024-01-30T07:41:07;14.84;;;14.84;;
70450;SDS011;58869;51.982;4.450;2024-01-30T07:43:33;14.70;;;14.70;;
70450;SDS011;58869;51.982;4.450;2024-01-30T07:45:58;15.10;;;15.10;;
70450;SDS011;58869;51.982;4.450;2024-01-30T07:48:26;15.47;;;15.41;;
70450;SDS011;58869;51.982;4.450;2024-01-30T07:50:51;15.36;;;15.17;;
70450;SDS011;58869;51.982;4.450;2024-01-30T07:53:17;14.77;;;14.73;;
70450;SDS011;58869;51.982;4.450;2024-01-30T07:55:42;14.59;;;14.59;;
70450;SDS011;58869;51.982;4.450;2024-01-30T07:58:11;14.86;;;14.85;;
70450;SDS011;58869;51.982;4.450;2024-01-30T08:00:40;15.31;;;15.25;;
70450;SDS011;58869;51.982;4.450;2024-01-30T08:03:06;15.02;;;15.02;;
70450;SDS011;58869;51.982;4.450;2024-01-30T08:05:32;15.85;;;15.85;;
70450;SDS011;58869;51.982;4.450;2024-01-30T08:07:57;16.55;;;16.55;;
70450;SDS011;58869;51.982;4.450;2024-01-30T08:10:23;16.31;;;16.31;;
70450;SDS011;58869;51.982;4.450;2024-01-30T08:12:48;16.87;;;16.87;;
70450;SDS011;58869;51.982;4.450;2024-01-30T08:15:14;16.78;;;16.70;;
70450;SDS011;58869;51.982;4.450;2024-01-30T08:17:39;16.55;;;16.50;;
70450;SDS011;58869;51.982;4.450;2024-01-30T08:20:05;16.68;;;16.55;;
70450;SDS011;58869;51.982;4.450;2024-01-30T08:22:33;16.17;;;16.16;;
70450;SDS011;58869;51.982;4.450;2024-01-30T08:24:58;15.68;;;15.67;;
70450;SDS011;58869;51.982;4.450;2024-01-30T08:27:24;16.25;;;16.25;;
70450;SDS011;58869;51.982;4.450;2024-01-30T08:29:49;15.88;;;15.87;;
70450;SDS011;58869;51.982;4.450;2024-01-30T08:32:16;15.39;;;15.39;;
70450;SDS011;58869;51.982;4.450;2024-01-30T08:34:41;15.80;;;15.80;;
70450;SDS011;58869;51.982;4.450;2024-01-30T08:37:09;15.16;;;15.15;;
70450;SDS011;58869;51.982;4.450;2024-01-30T08:39:35;15.37;;;15.37;;
70450;SDS011;58869;51.982;4.450;2024-01-30T08:42:00;15.47;;;15.43;;
70450;SDS011;58869;51.982;4.450;2024-01-30T08:44:26;15.33;;;15.22;;
70450;SDS011;58869;51.982;4.450;2024-01-30T08:49:29;15.65;;;15.60;;
70450;SDS011;58869;51.982;4.450;2024-01-30T08:52:13;15.44;;;15.44;;
70450;SDS011;58869;51.982;4.450;2024-01-30T08:54:38;15.57;;;15.57;;
70450;SDS011;58869;51.982;4.450;2024-01-30T08:57:06;15.04;;;15.03;;
70450;SDS011;58869;51.982;4.450;2024-01-30T08:59:50;15.11;;;15.09;;
70450;SDS011;58869;51.982;4.450;2024-01-30T09:02:15;15.99;;;15.99;;
70450;SDS011;58869;51.982;4.450;2024-01-30T09:11:45;13.61;;;13.61;;
70450;SDS011;58869;51.982;4.450;2024-01-30T09:14:10;12.93;;;12.93;;
70450;SDS011;58869;51.982;4.450;2024-01-30T09:16:37;11.86;;;11.86;;
70450;SDS011;58869;51.982;4.450;2024-01-30T09:19:02;9.62;;;9.62;;
70450;SDS011;58869;51.982;4.450;2024-01-30T09:21:29;9.10;;;9.09;;
70450;SDS011;58869;51.982;4.450;2024-01-30T09:24:12;8.98;;;8.95;;
70450;SDS011;58869;51.982;4.450;2024-01-30T09:26:38;8.72;;;8.67;;
70450;SDS011;58869;51.982;4.450;2024-01-30T09:29:04;8.12;;;8.03;;
70450;SDS011;58869;51.982;4.450;2024-01-30T09:31:29;7.67;;;7.59;;
70450;SDS011;58869;51.982;4.450;2024-01-30T09:33:54;7.53;;;7.40;;
70450;SDS011;58869;51.982;4.450;2024-01-30T09:36:20;6.73;;;6.49;;
70450;SDS011;58869;51.982;4.450;2024-01-30T09:38:46;6.43;;;6.12;;
70450;SDS011;58869;51.982;4.450;2024-01-30T09:41:14;6.25;;;6.02;;
70450;SDS011;58869;51.982;4.450;2024-01-30T09:43:40;5.96;;;5.75;;
70450;SDS011;58869;51.982;4.450;2024-01-30T09:46:18;6.10;;;5.83;;
70450;SDS011;58869;51.982;4.450;2024-01-30T09:48:46;6.32;;;5.95;;
70450;SDS011;58869;51.982;4.450;2024-01-30T09:51:19;6.71;;;6.21;;
70450;SDS011;58869;51.982;4.450;2024-01-30T09:57:14;6.06;;;5.42;;
70450;SDS011;58869;51.982;4.450;2024-01-30T09:59:54;5.60;;;5.04;;
70450;SDS011;58869;51.982;4.450;2024-01-30T10:02:20;5.49;;;4.99;;
70450;SDS011;58869;51.982;4.450;2024-01-30T10:07:55;4.87;;;4.26;;
70450;SDS011;58869;51.982;4.450;2024-01-30T10:10:22;5.00;;;4.33;;
70450;SDS011;58869;51.982;4.450;2024-01-30T10:19:06;4.52;;;4.04;;
70450;SDS011;58869;51.982;4.450;2024-01-30T10:24:26;3.83;;;3.54;;
70450;SDS011;58869;51.982;4.450;2024-01-30T10:26:54;3.37;;;3.26;;
70450;SDS011;58869;51.982;4.450;2024-01-30T10:29:20;3.71;;;3.42;;
70450;SDS011;58869;51.982;4.450;2024-01-30T10:31:46;3.65;;;3.34;;
70450;SDS011;58869;51.982;4.450;2024-01-30T10:34:12;3.38;;;3.08;;
70450;SDS011;58869;51.982;4.450;2024-01-30T10:36:41;3.69;;;3.34;;
70450;SDS011;58869;51.982;4.450;2024-01-30T10:45:07;4.38;;;3.79;;
70450;SDS011;58869;51.982;4.450;2024-01-30T10:47:36;4.66;;;4.03;;
70450;SDS011;58869;51.982;4.450;2024-01-30T10:50:02;4.59;;;4.17;;
70450;SDS011;58869;51.982;4.450;2024-01-30T10:52:31;4.49;;;4.14;;
70450;SDS011;58869;51.982;4.450;2024-01-30T10:54:58;4.24;;;3.94;;
70450;SDS011;58869;51.982;4.450;2024-01-30T10:57:27;3.87;;;3.63;;
70450;SDS011;58869;51.982;4.450;2024-01-30T11:19:32;3.94;;;2.87;;
70450;SDS011;58869;51.982;4.450;2024-01-30T11:22:08;4.67;;;3.23;;
70450;SDS011;58869;51.982;4.450;2024-01-30T11:25:05;5.04;;;3.29;;
70450;SDS011;58869;51.982;4.450;2024-01-30T11:27:54;5.00;;;3.25;;
70450;SDS011;58869;51.982;4.450;2024-01-30T11:36:13;5.40;;;3.57;;
70450;SDS011;58869;51.982;4.450;2024-01-30T11:38:46;5.27;;;3.50;;
70450;SDS011;58869;51.982;4.450;2024-01-30T11:41:13;4.85;;;3.22;;
70450;SDS011;58869;51.982;4.450;2024-01-30T11:43:51;4.97;;;3.31;;
70450;SDS011;58869;51.982;4.450;2024-01-30T11:46:19;5.27;;;3.52;;
70450;SDS011;58869;51.982;4.450;2024-01-30T11:52:00;6.43;;;4.24;;
70450;SDS011;58869;51.982;4.450;2024-01-30T11:54:28;5.29;;;3.53;;
70450;SDS011;58869;51.982;4.450;2024-01-30T11:56:54;5.39;;;3.70;;
70450;SDS011;58869;51.982;4.450;2024-01-30T12:02:49;5.33;;;3.71;;
70450;SDS011;58869;51.982;4.450;2024-01-30T12:11:59;5.46;;;3.69;;
70450;SDS011;58869;51.982;4.450;2024-01-30T12:14:28;4.46;;;3.01;;
70450;SDS011;58869;51.982;4.450;2024-01-30T12:16:54;4.33;;;3.01;;
70450;SDS011;58869;51.982;4.450;2024-01-30T12:26:10;5.50;;;3.67;;
70450;SDS011;58869;51.982;4.450;2024-01-30T12:28:54;5.54;;;3.69;;
70450;SDS011;58869;51.982;4.450;2024-01-30T12:37:22;5.01;;;3.39;;
70450;SDS011;58869;51.982;4.450;2024-01-30T12:40:16;5.90;;;3.89;;
70450;SDS011;58869;51.982;4.450;2024-01-30T12:49:39;6.26;;;4.07;;
70450;SDS011;58869;51.982;4.450;2024-01-30T12:58:15;5.91;;;3.93;;
70450;SDS011;58869;51.982;4.450;2024-01-30T13:00:47;6.88;;;4.50;;
70450;SDS011;58869;51.982;4.450;2024-01-30T13:03:12;6.18;;;4.05;;
70450;SDS011;58869;51.982;4.450;2024-01-30T13:05:53;5.51;;;3.67;;
70450;SDS011;58869;51.982;4.450;2024-01-30T13:11:30;4.50;;;3.15;;
70450;SDS011;58869;51.982;4.450;2024-01-30T13:17:15;4.63;;;3.25;;
70450;SDS011;58869;51.982;4.450;2024-01-30T13:19:42;4.39;;;3.13;;
70450;SDS011;58869;51.982;4.450;2024-01-30T13:22:07;3.83;;;2.79;;
70450;SDS011;58869;51.982;4.450;2024-01-30T13:24:33;3.86;;;2.82;;
70450;SDS011;58869;51.982;4.450;2024-01-30T13:26:58;3.87;;;2.81;;
70450;SDS011;58869;51.982;4.450;2024-01-30T13:29:24;4.18;;;3.10;;
70450;SDS011;58869;51.982;4.450;2024-01-30T13:31:50;3.79;;;2.95;;
70450;SDS011;58869;51.982;4.450;2024-01-30T13:34:18;3.58;;;2.95;;
70450;SDS011;58869;51.982;4.450;2024-01-30T13:36:45;3.58;;;3.05;;
70450;SDS011;58869;51.982;4.450;2024-01-30T13:39:10;3.25;;;2.84;;
70450;SDS011;58869;51.982;4.450;2024-01-30T13:41:37;3.51;;;3.08;;
70450;SDS011;58869;51.982;4.450;2024-01-30T13:44:03;3.67;;;3.25;;
70450;SDS011;58869;51.982;4.450;2024-01-30T13:46:29;3.68;;;3.33;;
70450;SDS011;58869;51.982;4.450;2024-01-30T13:48:55;3.54;;;3.31;;
70450;SDS011;58869;51.982;4.450;2024-01-30T13:51:21;3.20;;;3.01;;
70450;SDS011;58869;51.982;4.450;2024-01-30T13:53:46;3.37;;;3.23;;
70450;SDS011;58869;51.982;4.450;2024-01-30T13:56:12;3.49;;;3.36;;
70450;SDS011;58869;51.982;4.450;2024-01-30T13:58:37;4.20;;;3.94;;
70450;SDS011;58869;51.982;4.450;2024-01-30T14:01:03;3.95;;;3.71;;
70450;SDS011;58869;51.982;4.450;2024-01-30T14:03:30;4.05;;;3.88;;
70450;SDS011;58869;51.982;4.450;2024-01-30T14:05:55;4.20;;;4.01;;
70450;SDS011;58869;51.982;4.450;2024-01-30T14:08:21;4.14;;;3.93;;
70450;SDS011;58869;51.982;4.450;2024-01-30T14:10:52;4.44;;;4.19;;
70450;SDS011;58869;51.982;4.450;2024-01-30T14:13:54;4.37;;;4.07;;
70450;SDS011;58869;51.982;4.450;2024-01-30T14:16:28;4.41;;;4.09;;
70450;SDS011;58869;51.982;4.450;2024-01-30T14:19:15;4.36;;;4.06;;
70450;SDS011;58869;51.982;4.450;2024-01-30T14:24:33;4.23;;;4.03;;
70450;SDS011;58869;51.982;4.450;2024-01-30T14:27:12;3.91;;;3.81;;
70450;SDS011;58869;51.982;4.450;2024-01-30T14:33:36;3.99;;;3.98;;
70450;SDS011;58869;51.982;4.450;2024-01-30T14:42:02;4.32;;;4.32;;
70450;SDS011;58869;51.982;4.450;2024-01-30T14:44:32;4.35;;;4.35;;
70450;SDS011;58869;51.982;4.450;2024-01-30T14:46:59;4.34;;;4.34;;
70450;SDS011;58869;51.982;4.450;2024-01-30T14:49:25;4.66;;;4.66;;
70450;SDS011;58869;51.982;4.450;2024-01-30T14:51:51;4.14;;;4.14;;
70450;SDS011;58869;51.982;4.450;2024-01-30T14:54:16;4.52;;;4.52;;
70450;SDS011;58869;51.982;4.450;2024-01-30T15:07:33;5.85;;;5.85;;
70450;SDS011;58869;51.982;4.450;2024-01-30T15:09:59;6.42;;;6.41;;
70450;SDS011;58869;51.982;4.450;2024-01-30T15:12:24;7.60;;;7.60;;
70450;SDS011;58869;51.982;4.450;2024-01-30T15:14:54;7.60;;;7.60;;
70450;SDS011;58869;51.982;4.450;2024-01-30T15:17:29;8.28;;;8.28;;
70450;SDS011;58869;51.982;4.450;2024-01-30T15:20:01;8.48;;;8.48;;
70450;SDS011;58869;51.982;4.450;2024-01-30T15:22:31;8.62;;;8.62;;
70450;SDS011;58869;51.982;4.450;2024-01-30T15:27:56;8.94;;;8.94;;
70450;SDS011;58869;51.982;4.450;2024-01-30T15:30:41;9.27;;;9.27;;
70450;SDS011;58869;51.982;4.450;2024-01-30T15:33:09;8.42;;;8.42;;
70450;SDS011;58869;51.982;4.450;2024-01-30T15:36:37;8.28;;;8.28;;
70450;SDS011;58869;51.982;4.450;2024-01-30T15:39:33;8.56;;;8.56;;
70450;SDS011;58869;51.982;4.450;2024-01-30T15:45:22;8.85;;;8.85;;
70450;SDS011;58869;51.982;4.450;2024-01-30T15:48:07;8.38;;;8.38;;
70450;SDS011;58869;51.982;4.450;2024-01-30T15:53:27;7.36;;;7.35;;
70450;SDS011;58869;51.982;4.450;2024-01-30T15:59:13;6.34;;;6.32;;
70450;SDS011;58869;51.982;4.450;2024-01-30T16:07:25;5.08;;;5.02;;
70450;SDS011;58869;51.982;4.450;2024-01-30T16:13:23;4.81;;;4.74;;
70450;SDS011;58869;51.982;4.450;2024-01-30T16:15:55;4.86;;;4.75;;
70450;SDS011;58869;51.982;4.450;2024-01-30T16:18:21;4.73;;;4.61;;
70450;SDS011;58869;51.982;4.450;2024-01-30T16:21:05;4.62;;;4.47;;
70450;SDS011;58869;51.982;4.450;2024-01-30T16:27:34;4.68;;;4.45;;
70450;SDS011;58869;51.982;4.450;2024-01-30T16:30:03;4.18;;;4.00;;
70450;SDS011;58869;51.982;4.450;2024-01-30T16:32:32;4.02;;;3.83;;
70450;SDS011;58869;51.982;4.450;2024-01-30T16:35:03;4.77;;;4.55;;
70450;SDS011;58869;51.982;4.450;2024-01-30T16:37:30;4.76;;;4.59;;
70450;SDS011;58869;51.982;4.450;2024-01-30T16:39:59;4.78;;;4.67;;
70450;SDS011;58869;51.982;4.450;2024-01-30T16:42:24;4.35;;;4.24;;
70450;SDS011;58869;51.982;4.450;2024-01-30T16:44:50;3.72;;;3.57;;
70450;SDS011;58869;51.982;4.450;2024-01-30T16:47:50;3.69;;;3.40;;
70450;SDS011;58869;51.982;4.450;2024-01-30T16:50:19;3.93;;;3.51;;
70450;SDS011;58869;51.982;4.450;2024-01-30T16:52:50;4.06;;;3.48;;
70450;SDS011;58869;51.982;4.450;2024-01-30T16:55:28;4.33;;;3.53;;
70450;SDS011;58869;51.982;4.450;2024-01-30T17:01:52;4.74;;;3.54;;
70450;SDS011;58869;51.982;4.450;2024-01-30T17:07:22;6.03;;;4.13;;
70450;SDS011;58869;51.982;4.450;2024-01-30T17:10:00;6.08;;;4.13;;
70450;SDS011;58869;51.982;4.450;2024-01-30T17:13:01;7.81;;;5.11;;
70450;SDS011;58869;51.982;4.450;2024-01-30T17:18:30;7.60;;;5.17;;
70450;SDS011;58869;51.982;4.450;2024-01-30T17:26:54;7.56;;;4.95;;
70450;SDS011;58869;51.982;4.450;2024-01-30T17:29:22;8.06;;;5.28;;
70450;SDS011;58869;51.982;4.450;2024-01-30T17:31:48;8.11;;;5.29;;
70450;SDS011;58869;51.982;4.450;2024-01-30T17:34:15;8.04;;;5.28;;
70450;SDS011;58869;51.982;4.450;2024-01-30T17:36:43;8.82;;;5.69;;
70450;SDS011;58869;51.982;4.450;2024-01-30T17:39:09;8.74;;;5.66;;
70450;SDS011;58869;51.982;4.450;2024-01-30T17:41:35;8.49;;;5.52;;
70450;SDS011;58869;51.982;4.450;2024-01-30T17:44:01;9.64;;;6.10;;
70450;SDS011;58869;51.982;4.450;2024-01-30T17:46:29;10.37;;;6.44;;
70450;SDS011;58869;51.982;4.450;2024-01-30T17:48:56;10.29;;;6.36;;
70450;SDS011;58869;51.982;4.450;2024-01-30T17:51:22;10.67;;;6.48;;
70450;SDS011;58869;51.982;4.450;2024-01-30T17:53:50;10.40;;;6.29;;
70450;SDS011;58869;51.982;4.450;2024-01-30T17:56:26;10.94;;;6.62;;